Shempston Farm Airstrip

GB-0746 · Scotland, 英国

罗盘
风向 的 风向 230° Shempston Farm Airstrip 1/19
风: 2 kt, 1 beaufort

1 kt

2 kt
改变
0 ft 2.000 4.000 6.000 8.000 10.000
Cloud Cloud
FEW 300
Cloud Cloud Cloud Cloud Cloud Cloud
BKN 6.000
METAR EGQS 242150Z 23002KT 9999 FEW003 BKN060 14/13 Q1017 RMK BLU

METAR Shempston Farm Airstrip - GB-0746

Shempston Farm Airstrip是,英国中的小机场。 该机场位于纬度57,69573和经度-3,36594。 该机场有一条跑道: 1/19. 这个机场没有ICAO代码,我们使用GB-0746作为参考。 机场在Scottish FIR中。

该航空气象观测是针对RAF Lossiemouth在2024年5月24日 22:50, 当地时间进行的。

机场观察

风向为230°,速度为2 kt。

可见度为10 km 或者更多。

有几云在300 ft的高度 和 碎云在6.000 ft的高度。 破损或更高的上限为6.000 ft。

温度和风寒是14 °C。 露点为13 °C,相对湿度为94%。 海平面上的气压为1017 hPa (QNH)。

白天

今天,太阳从04:33升起,在21:47降落。 这适用于Shempston Farm Airstrip,世界夏令时可能有所不同。 当地时间与世界标准时间之间的时差为+1 小时。 夏令时目前正在进行中。

公司介绍

我们没有关于这个机场的公司信息。

体会

到Vliegles.nl去找飞行课程,跳伞和其他飞行体验。 浏览页面,了解Shempston Farm Airstrip附近所有可用的活动。 你也可以使用搜索功能来寻找你所在地附近的特定飞行课程、跳伞或其他飞行体验。

请勿用于飞行规划
机场可能关闭或需要事先获得许可。 真正的航向和跑道末端的坐标可能是一个估计值。 磁性航向是使用WMM2020模型从真实航向计算出来的。

跑道

Id 标题 侧风 逆风 侧风 %
1/19 336°-156° 2 kt 96 %

逆风成分最大的方向会被突出显示,并用于横风计算。 这并不一定意味着这个方向在使用。

乌云

300 ft FEW 几云
6.000 ft BKN 碎云

温度 & 天气

温度 14 °C
露点 13 °C
相对湿度 94%
Kp-index 0 (0-9)

白天

日出
04:32 (5:17)
中午
13:10
日落
21:47

小工具

你想在你的网站上有一个关于Shempston Farm Airstrip的当前航空天气(METAR)的小部件吗?

显示HTML代码
报告变更